Ronald Reagan Washington National Airport
KDCA : now visible

Airfield :











YOU CAN JOIN US ON...

 
LOGIN :

Register | Disclaimer

   EN    FR    IT 

 









Legend :    VFR   Marginal VFR   IFR   Intensive IFR   Very Intensive IFR
Visi :
Ceiling :
>= 8 km
>= 3000ft
5 to 8 km
1000 to 3000 ft
1500m to 5 km
500 to 1000 ft
800 to 1500m
200 to 500 ft
< 800m
< 200 ft
Symbols :   Thunderstorms  Fog  Heavy snow  Heavy precipitations  Wind > 20 kt






- Airport Elevation : 15 ft
- IATA code : DCA


KDCA - Ronald Reagan Washington National

CURRENT METAR :
  • 260452Z 30005KT 10SM SCT049 OVC060 07/00 A2992 RMK AO2 SLP130 T00670000 401110050

EXPIRED METARs :
  • 260352Z 32010KT 10SM BKN055 07/01 A2991 RMK AO2 SLP128 T00670006
  • 260252Z 33006KT 10SM FEW050 BKN060 07/03 A2991 RMK AO2 SLP127 T00670028 51008

TAF KDCA
Valid from the 26 at 00:00 until the 27 at 06:00 UTC


252320Z 2600/2706 30006KT P6SM FEW025 BKN060
FM260200 27005KT P6SM FEW060 SCT070
FM261700 27009KT P6SM FEW045 SCT250
FM262300 28005KT P6SM FEW050 SCT250



MET'MAP, your aeronautical weather chart ! - Copyright ORBIFLY December 2007 - Disclaimer

ORBIFLY MET'MAP TEAM :

Programming & Development : Alexandra Zaïnal
Concept & original design : Baudouin d'Aumeries
Assistance for programming : Marc-Olivier Méhu
Technical & hardware support : Manuel Goepfert

Contact : metmap@orbifly.com




SOURCES & CREDITS :

   NOAA       Earth
Advisory